Decoded Metar for RKSS (SEOUL in KOREA) (IATA:GMP) | Meteo·Mobile Aviation Weather
aviador You're here:

RKSS Decoded Metar

SEOUL in KOREA
Report Time2019-08-19 09:00:00
UTC Time2019-08-19 10:04:56
Flight Rules vfr VFR
Wind330° at 08 kt
W.Decomp.*RWY 32: 7.6 kt HW 2.5 kt RCW
Visibility9999 m
Phenomena:N/A
Clouds:N/A
Expected CloudBase > 3,600 ft AGL from Temp-Dew spread
CeilingNone
Temp29°C (ISA +14)
Dew Point20°C (58% RH)
Heat Index30.7°C
QNH1008 hPa
Density Alt2,162 ft
Elevation62 ft
Report Wrong Elevation
Raw Report
METAR RKSS 190900Z 33008KT CAVOK 29/20 Q1008 NOSIG=

Extra information for RKSS:More info

Metar Taf Metar & Taf Last 4 Metars F.Rules Stats Wind Profile Meteogram Temp Stats Airport Information Weather charts Add Link Nearby VenuesMetar ALERT Operation Metar Decoded Social comments